Time,TemperatureF,DewpointF,PressureIn,WindDirection,WindDirectionDegrees,WindSpeedMPH,WindSpeedGustMPH,Humidity,HourlyPrecipIn,Conditions,Clouds,dailyrainin,SoftwareType,DateUTC
2013-02-04 00:00:00,22.6,20.4,29.70,NNW,344,0.0,1.0,91,0.00,,OVC070,0.02,VWS V14.00,2013-02-04 05:00:00,
2013-02-04 00:01:00,22.6,20.4,29.70,NNW,344,0.0,1.0,91,0.00,,OVC070,0.02,VWS V14.00,2013-02-04 05:01:00,
2013-02-04 00:03:00,22.6,20.4,29.70,NNW,344,0.0,0.0,91,0.00,,OVC070,0.00,VWS V14.00,2013-02-04 05:03:00,
2013-02-04 00:04:00,22.6,20.4,29.70,NNW,344,0.0,0.0,91,0.00,,OVC070,0.00,VWS V14.00,2013-02-04 05:04:00,
2013-02-04 00:09:00,22.6,20.4,29.70,NNW,344,0.0,0.0,91,0.00,,OVC070,0.00,VWS V14.00,2013-02-04 05:09:00,
2013-02-04 00:14:00,22.6,20.4,29.70,NNW,344,0.0,0.0,91,0.00,,OVC070,0.00,VWS V14.00,2013-02-04 05:14:00,
2013-02-04 00:20:00,22.6,20.4,29.70,NNW,344,0.0,0.0,91,0.00,,OVC070,0.00,VWS V14.00,2013-02-04 05:20:00,
2013-02-04 00:25:00,22.6,20.4,29.70,NNW,344,0.0,0.0,91,0.00,,OVC070,0.00,VWS V14.00,2013-02-04 05:25:00,
2013-02-04 00:30:00,22.6,20.4,29.70,NNW,344,0.0,0.0,91,0.00,,OVC070,0.00,VWS V14.00,2013-02-04 05:30:00,
2013-02-04 00:35:00,22.6,20.4,29.70,NNW,344,0.0,0.0,91,0.00,,OVC070,0.00,VWS V14.00,2013-02-04 05:35:00,
2013-02-04 00:40:00,22.6,20.4,29.71,NNW,344,0.0,0.0,91,0.00,,OVC070,0.00,VWS V14.00,2013-02-04 05:40:00,
2013-02-04 00:45:00,22.6,20.4,29.70,NNW,344,0.0,0.0,91,0.00,,OVC070,0.00,VWS V14.00,2013-02-04 05:45:00,
2013-02-04 00:50:00,22.6,20.4,29.70,NNW,344,0.0,1.0,91,0.00,,OVC070,0.00,VWS V14.00,2013-02-04 05:50:00,
2013-02-04 00:55:00,22.6,20.4,29.70,NNW,344,0.0,0.0,91,0.00,,OVC070,0.00,VWS V14.00,2013-02-04 05:55:00,
2013-02-04 01:00:00,22.6,20.4,29.70,NNW,344,0.0,0.0,91,0.00,,OVC070,0.00,VWS V14.00,2013-02-04 06:00:00,
2013-02-04 01:05:00,22.4,20.2,29.70,NNW,344,0.0,0.0,91,0.00,,OVC070,0.00,VWS V14.00,2013-02-04 06:05:00,
2013-02-04 01:10:00,22.4,20.2,29.70,NNW,344,0.0,0.0,91,0.00,,OVC070,0.00,VWS V14.00,2013-02-04 06:10:00,
2013-02-04 01:15:00,22.4,20.2,29.71,NNW,344,0.0,0.0,91,0.00,,OVC070,0.00,VWS V14.00,2013-02-04 06:15:00,
2013-02-04 01:20:00,22.4,20.2,29.70,NNW,344,0.0,0.0,91,0.00,,OVC070,0.00,VWS V14.00,2013-02-04 06:20:00,
2013-02-04 01:25:00,22.4,20.2,29.70,WSW,253,0.0,2.0,91,0.00,,OVC070,0.00,VWS V14.00,2013-02-04 06:25:00,
2013-02-04 01:30:00,22.3,20.1,29.70,WSW,253,0.0,2.0,91,0.00,,OVC070,0.00,VWS V14.00,2013-02-04 06:30:00,
2013-02-04 01:35:00,22.3,20.1,29.70,WSW,251,0.0,2.0,91,0.00,,OVC070,0.00,VWS V14.00,2013-02-04 06:35:00,
2013-02-04 01:40:00,22.1,19.9,29.70,WSW,251,1.0,2.0,91,0.00,,OVC070,0.00,VWS V14.00,2013-02-04 06:40:00,
2013-02-04 01:46:00,22.1,19.9,29.70,WSW,251,0.0,2.0,91,0.00,,OVC070,0.00,VWS V14.00,2013-02-04 06:46:00,
2013-02-04 01:51:00,22.0,19.8,29.70,WSW,251,0.0,2.0,91,0.00,,OVC070,0.00,VWS V14.00,2013-02-04 06:51:00,
2013-02-04 01:56:00,21.8,19.6,29.70,WSW,250,0.0,1.0,91,0.00,,OVC070,0.00,VWS V14.00,2013-02-04 06:56:00,
2013-02-04 02:01:00,21.7,19.5,29.71,SSW,207,0.0,3.0,91,0.00,,OVC075,0.00,VWS V14.00,2013-02-04 07:01:00,
2013-02-04 02:06:00,21.5,19.3,29.71,SSW,209,2.0,3.0,91,0.00,,OVC075,0.00,VWS V14.00,2013-02-04 07:06:00,
2013-02-04 02:11:00,21.4,19.2,29.71,SSW,209,0.0,3.0,91,0.00,,OVC075,0.00,VWS V14.00,2013-02-04 07:11:00,
2013-02-04 02:16:00,21.4,19.2,29.70,SSW,209,0.0,0.0,91,0.00,,OVC075,0.00,VWS V14.00,2013-02-04 07:16:00,
2013-02-04 02:21:00,21.4,18.9,29.70,SSW,209,0.0,0.0,90,0.00,,OVC075,0.00,VWS V14.00,2013-02-04 07:21:00,
2013-02-04 02:26:00,21.2,18.7,29.70,SSW,209,1.0,1.0,90,0.00,,OVC075,0.00,VWS V14.00,2013-02-04 07:26:00,
2013-02-04 02:31:00,21.2,18.7,29.70,SW,220,1.0,1.0,90,0.00,,OVC075,0.00,VWS V14.00,2013-02-04 07:31:00,
2013-02-04 02:36:00,21.0,18.5,29.69,SW,220,0.0,1.0,90,0.00,,OVC075,0.00,VWS V14.00,2013-02-04 07:36:00,
2013-02-04 02:41:00,21.0,18.5,29.69,SW,220,0.0,2.0,90,0.00,,OVC075,0.00,VWS V14.00,2013-02-04 07:41:00,
2013-02-04 02:46:00,20.9,18.4,29.69,WSW,254,1.0,2.0,90,0.00,,OVC075,0.00,VWS V14.00,2013-02-04 07:46:00,
2013-02-04 02:51:00,20.7,18.0,29.69,WSW,254,0.0,0.0,89,0.00,,OVC075,0.00,VWS V14.00,2013-02-04 07:51:00,
2013-02-04 02:56:00,20.6,17.9,29.69,WSW,254,0.0,1.0,89,0.00,,OVC075,0.00,VWS V14.00,2013-02-04 07:56:00,
2013-02-04 03:01:00,20.4,17.7,29.69,SW,231,1.0,2.0,89,0.00,,OVC220,0.00,VWS V14.00,2013-02-04 08:01:00,
2013-02-04 03:06:00,20.3,17.6,29.69,WSW,242,0.0,2.0,89,0.00,,OVC220,0.00,VWS V14.00,2013-02-04 08:06:00,
2013-02-04 03:12:00,20.3,17.3,29.69,WSW,244,0.0,1.0,88,0.00,,OVC220,0.00,VWS V14.00,2013-02-04 08:12:00,
2013-02-04 03:17:00,20.1,17.1,29.69,WSW,244,0.0,1.0,88,0.00,,OVC220,0.00,VWS V14.00,2013-02-04 08:17:00,
2013-02-04 03:22:00,19.9,16.9,29.69,WSW,244,0.0,0.0,88,0.00,,OVC220,0.00,VWS V14.00,2013-02-04 08:22:00,
2013-02-04 03:27:00,19.8,16.8,29.69,WSW,248,0.0,2.0,88,0.00,,OVC220,0.00,VWS V14.00,2013-02-04 08:27:00,
2013-02-04 03:32:00,19.6,16.4,29.69,WSW,248,0.0,1.0,87,0.00,,OVC220,0.00,VWS V14.00,2013-02-04 08:32:00,
2013-02-04 03:37:00,19.5,16.3,29.70,WSW,248,0.0,2.0,87,0.00,,OVC220,0.00,VWS V14.00,2013-02-04 08:37:00,
2013-02-04 03:42:00,19.3,16.1,29.70,WSW,248,0.0,1.0,87,0.00,,OVC220,0.00,VWS V14.00,2013-02-04 08:42:00,
2013-02-04 03:47:00,19.3,15.8,29.70,WSW,244,0.0,2.0,86,0.00,,OVC220,0.00,VWS V14.00,2013-02-04 08:47:00,
2013-02-04 03:52:00,19.1,15.6,29.70,WSW,244,0.0,0.0,86,0.00,,OVC220,0.00,VWS V14.00,2013-02-04 08:52:00,
2013-02-04 03:57:00,19.1,15.6,29.70,WSW,244,0.0,0.0,86,0.00,,OVC220,0.00,VWS V14.00,2013-02-04 08:57:00,
2013-02-04 04:02:00,19.0,15.2,29.70,WSW,244,0.0,0.0,85,0.00,,SCT250,0.00,VWS V14.00,2013-02-04 09:02:00,
2013-02-04 04:07:00,18.8,15.1,29.70,WSW,244,0.0,0.0,85,0.00,,SCT250,0.00,VWS V14.00,2013-02-04 09:07:00,
2013-02-04 04:12:00,18.7,14.9,29.70,WSW,244,0.0,0.0,85,0.00,,SCT250,0.00,VWS V14.00,2013-02-04 09:12:00,
2013-02-04 04:17:00,18.5,14.8,29.70,WSW,244,0.0,0.0,85,0.00,,SCT250,0.00,VWS V14.00,2013-02-04 09:17:00,
2013-02-04 04:22:00,18.5,14.8,29.71,WSW,244,0.0,0.0,85,0.00,,SCT250,0.00,VWS V14.00,2013-02-04 09:22:00,
2013-02-04 04:27:00,18.4,14.6,29.71,WSW,244,0.0,2.0,85,0.00,,SCT250,0.00,VWS V14.00,2013-02-04 09:27:00,
2013-02-04 04:32:00,18.4,14.4,29.71,WSW,242,0.0,0.0,84,0.00,,SCT250,0.00,VWS V14.00,2013-02-04 09:32:00,
2013-02-04 04:38:00,18.2,14.2,29.71,WSW,242,0.0,1.0,84,0.00,,SCT250,0.00,VWS V14.00,2013-02-04 09:38:00,
2013-02-04 04:43:00,18.2,14.2,29.71,SW,236,0.0,2.0,84,0.00,,SCT250,0.00,VWS V14.00,2013-02-04 09:43:00,
2013-02-04 04:48:00,18.2,13.9,29.71,SW,236,1.0,2.0,83,0.00,,SCT250,0.00,VWS V14.00,2013-02-04 09:48:00,
2013-02-04 04:53:00,18.4,14.1,29.71,WSW,244,1.0,2.0,83,0.00,,SCT250,0.00,VWS V14.00,2013-02-04 09:53:00,
2013-02-04 04:58:00,18.4,13.8,29.71,SW,223,0.0,2.0,82,0.00,,SCT250,0.00,VWS V14.00,2013-02-04 09:58:00,
2013-02-04 05:03:00,18.4,13.8,29.71,WSW,238,0.0,3.0,82,0.00,,OVC220,0.00,VWS V14.00,2013-02-04 10:03:00,
2013-02-04 05:08:00,18.5,13.6,29.71,WSW,252,0.0,4.0,81,0.00,,OVC220,0.00,VWS V14.00,2013-02-04 10:08:00,
2013-02-04 05:13:00,18.7,13.9,29.72,SSW,208,0.0,2.0,81,0.00,,OVC220,0.00,VWS V14.00,2013-02-04 10:13:00,
2013-02-04 05:18:00,18.7,13.9,29.72,SSW,208,0.0,3.0,81,0.00,,OVC220,0.00,VWS V14.00,2013-02-04 10:18:00,
2013-02-04 05:23:00,18.8,13.7,29.72,SSW,208,0.0,2.0,80,0.00,,OVC220,0.00,VWS V14.00,2013-02-04 10:23:00,
2013-02-04 05:28:00,18.8,13.7,29.72,SSW,211,2.0,4.0,80,0.00,,OVC220,0.00,VWS V14.00,2013-02-04 10:28:00,
2013-02-04 05:33:00,18.8,13.4,29.72,SSW,211,0.0,3.0,79,0.00,,OVC220,0.00,VWS V14.00,2013-02-04 10:33:00,
2013-02-04 05:38:00,19.0,13.6,29.72,WSW,241,0.0,3.0,79,0.00,,OVC220,0.00,VWS V14.00,2013-02-04 10:38:00,
2013-02-04 05:43:00,19.0,13.6,29.72,WSW,246,1.0,4.0,79,0.00,,OVC220,0.00,VWS V14.00,2013-02-04 10:43:00,
2013-02-04 05:48:00,19.0,13.3,29.72,WSW,246,1.0,4.0,78,0.00,,OVC220,0.00,VWS V14.00,2013-02-04 10:48:00,
2013-02-04 05:53:00,19.0,13.3,29.72,WSW,241,1.0,3.0,78,0.00,,OVC220,0.00,VWS V14.00,2013-02-04 10:53:00,
2013-02-04 05:58:00,19.0,13.3,29.72,SW,232,1.0,5.0,78,0.00,,OVC220,0.00,VWS V14.00,2013-02-04 10:58:00,
2013-02-04 06:04:00,19.0,13.3,29.73,SW,215,1.0,2.0,78,0.00,,FEW150,0.00,VWS V14.00,2013-02-04 11:04:00,
2013-02-04 06:09:00,19.1,13.4,29.73,WSW,251,2.0,3.0,78,0.00,,FEW150,0.00,VWS V14.00,2013-02-04 11:09:00,
2013-02-04 06:14:00,19.1,13.4,29.73,SW,223,1.0,1.0,78,0.00,,FEW150,0.00,VWS V14.00,2013-02-04 11:14:00,
2013-02-04 06:19:00,19.1,13.4,29.73,WSW,247,1.0,3.0,78,0.00,,FEW150,0.00,VWS V14.00,2013-02-04 11:19:00,
2013-02-04 06:24:00,19.1,13.4,29.74,West,268,1.0,2.0,78,0.00,,FEW150,0.00,VWS V14.00,2013-02-04 11:24:00,
2013-02-04 06:29:00,19.1,13.4,29.74,West,263,3.0,5.0,78,0.00,,FEW150,0.00,VWS V14.00,2013-02-04 11:29:00,
2013-02-04 06:34:00,19.1,13.1,29.74,SSW,202,2.0,3.0,77,0.00,,FEW150,0.00,VWS V14.00,2013-02-04 11:34:00,
2013-02-04 06:39:00,19.3,13.3,29.74,WSW,257,0.0,4.0,77,0.00,,FEW150,0.00,VWS V14.00,2013-02-04 11:39:00,
2013-02-04 06:44:00,19.3,13.6,29.74,WSW,243,0.0,3.0,78,0.00,,FEW150,0.00,VWS V14.00,2013-02-04 11:44:00,
2013-02-04 06:49:00,19.3,13.6,29.74,NNW,343,0.0,3.0,78,0.00,,FEW150,0.00,VWS V14.00,2013-02-04 11:49:00,
2013-02-04 06:54:00,19.3,13.6,29.74,NNW,343,0.0,1.0,78,0.00,,FEW150,0.00,VWS V14.00,2013-02-04 11:54:00,
2013-02-04 06:59:00,19.3,13.3,29.74,West,279,1.0,4.0,77,0.00,,FEW150,0.00,VWS V14.00,2013-02-04 11:59:00,
2013-02-04 07:04:00,19.3,13.3,29.75,West,261,3.0,5.0,77,0.00,,SCT250,0.00,VWS V14.00,2013-02-04 12:04:00,
2013-02-04 07:10:00,19.3,13.3,29.75,WSW,244,2.0,5.0,77,0.00,,SCT250,0.00,VWS V14.00,2013-02-04 12:10:00,
2013-02-04 07:15:00,19.5,13.5,29.75,WSW,252,2.0,5.0,77,0.00,,SCT250,0.00,VWS V14.00,2013-02-04 12:15:00,
2013-02-04 07:20:00,19.5,13.5,29.75,SW,223,0.0,5.0,77,0.00,,SCT250,0.00,VWS V14.00,2013-02-04 12:20:00,
2013-02-04 07:25:00,19.5,13.5,29.75,WNW,287,0.0,11.0,77,0.00,,SCT250,0.00,VWS V14.00,2013-02-04 12:25:00,
2013-02-04 07:30:00,19.6,13.6,29.75,WSW,252,4.0,11.0,77,0.00,,SCT250,0.00,VWS V14.00,2013-02-04 12:30:00,
2013-02-04 07:35:00,19.6,13.6,29.75,WSW,247,2.0,4.0,77,0.00,,SCT250,0.00,VWS V14.00,2013-02-04 12:35:00,
2013-02-04 07:40:00,19.8,13.8,29.75,WSW,241,3.0,4.0,77,0.00,,SCT250,0.00,VWS V14.00,2013-02-04 12:40:00,
2013-02-04 07:45:00,19.8,13.8,29.76,SW,229,0.0,3.0,77,0.00,,SCT250,0.00,VWS V14.00,2013-02-04 12:45:00,
2013-02-04 07:50:00,19.9,13.9,29.76,WSW,257,1.0,4.0,77,0.00,,SCT250,0.00,VWS V14.00,2013-02-04 12:50:00,
2013-02-04 07:55:00,20.1,13.8,29.76,SW,229,2.0,6.0,76,0.00,,SCT250,0.00,VWS V14.00,2013-02-04 12:55:00,
2013-02-04 08:00:00,20.3,14.0,29.77,SW,217,3.0,6.0,76,0.00,,FEW050,0.00,VWS V14.00,2013-02-04 13:00:00,
2013-02-04 08:05:00,20.4,14.1,29.77,SW,225,4.0,6.0,76,0.00,,FEW050,0.00,VWS V14.00,2013-02-04 13:05:00,
2013-02-04 08:10:00,20.6,13.9,29.77,West,260,1.0,6.0,75,0.00,,FEW050,0.00,VWS V14.00,2013-02-04 13:10:00,
2013-02-04 08:15:00,20.7,14.0,29.77,SW,227,0.0,6.0,75,0.00,,FEW050,0.00,VWS V14.00,2013-02-04 13:15:00,
2013-02-04 08:20:00,20.7,14.0,29.77,WSW,254,2.0,6.0,75,0.00,,FEW050,0.00,VWS V14.00,2013-02-04 13:20:00,
2013-02-04 08:26:00,20.9,13.9,29.77,WSW,246,6.0,6.0,74,0.00,,FEW050,0.00,VWS V14.00,2013-02-04 13:26:00,
2013-02-04 08:31:00,21.0,14.0,29.77,West,270,4.0,10.0,74,0.00,,FEW050,0.00,VWS V14.00,2013-02-04 13:31:00,
2013-02-04 08:36:00,21.4,14.1,29.77,West,265,5.0,5.0,73,0.00,,FEW050,0.00,VWS V14.00,2013-02-04 13:36:00,
2013-02-04 08:41:00,21.5,13.9,29.76,West,275,1.0,6.0,72,0.00,,FEW050,0.00,VWS V14.00,2013-02-04 13:41:00,
2013-02-04 08:46:00,21.8,13.9,29.76,WSW,251,3.0,9.0,71,0.00,,FEW050,0.00,VWS V14.00,2013-02-04 13:46:00,
2013-02-04 08:51:00,22.0,14.1,29.76,West,269,4.0,9.0,71,0.00,,FEW050,0.00,VWS V14.00,2013-02-04 13:51:00,
2013-02-04 08:56:00,22.3,14.0,29.77,WSW,239,3.0,8.0,70,0.00,,FEW050,0.00,VWS V14.00,2013-02-04 13:56:00,
2013-02-04 09:01:00,22.4,14.1,29.77,West,269,3.0,6.0,70,0.00,,FEW050,0.00,VWS V14.00,2013-02-04 14:01:00,
2013-02-04 09:06:00,22.6,14.0,29.77,WNW,296,2.0,12.0,69,0.00,,FEW050,0.00,VWS V14.00,2013-02-04 14:06:00,
2013-02-04 09:11:00,22.9,14.3,29.77,SSW,210,1.0,4.0,69,0.00,,FEW050,0.00,VWS V14.00,2013-02-04 14:11:00,
2013-02-04 09:16:00,23.0,14.0,29.77,WSW,239,4.0,8.0,68,0.00,,FEW050,0.00,VWS V14.00,2013-02-04 14:16:00,
2013-02-04 09:21:00,23.2,13.9,29.77,WSW,248,3.0,3.0,67,0.00,,FEW050,0.00,VWS V14.00,2013-02-04 14:21:00,
2013-02-04 09:26:00,23.2,13.9,29.77,SSW,203,10.0,10.0,67,0.00,,FEW050,0.00,VWS V14.00,2013-02-04 14:26:00,
2013-02-04 09:31:00,23.3,13.6,29.77,West,266,4.0,5.0,66,0.00,,FEW050,0.00,VWS V14.00,2013-02-04 14:31:00,
2013-02-04 09:36:00,23.5,13.8,29.77,WSW,255,2.0,9.0,66,0.00,,FEW050,0.00,VWS V14.00,2013-02-04 14:36:00,
2013-02-04 09:41:00,23.6,13.6,29.77,NNW,332,12.0,12.0,65,0.00,,FEW050,0.00,VWS V14.00,2013-02-04 14:41:00,
2013-02-04 09:46:00,23.8,13.8,29.77,SW,224,0.0,12.0,65,0.00,,FEW050,0.00,VWS V14.00,2013-02-04 14:46:00,
2013-02-04 09:52:00,23.9,13.1,29.77,NW,326,5.0,6.0,63,0.00,,FEW050,0.00,VWS V14.00,2013-02-04 14:52:00,
2013-02-04 09:57:00,24.1,13.0,29.77,WSW,244,2.0,12.0,62,0.00,,FEW050,0.00,VWS V14.00,2013-02-04 14:57:00,
2013-02-04 10:02:00,24.3,13.2,29.77,NNW,334,6.0,7.0,62,0.00,,FEW045,0.00,VWS V14.00,2013-02-04 15:02:00,
2013-02-04 10:07:00,24.5,13.4,29.77,WSW,251,2.0,12.0,62,0.00,,FEW045,0.00,VWS V14.00,2013-02-04 15:07:00,
2013-02-04 10:12:00,24.8,13.3,29.77,WNW,300,4.0,9.0,61,0.00,,FEW045,0.00,VWS V14.00,2013-02-04 15:12:00,
2013-02-04 10:17:00,24.9,13.0,29.77,WSW,244,4.0,13.0,60,0.00,,FEW045,0.00,VWS V14.00,2013-02-04 15:17:00,
2013-02-04 10:22:00,25.2,12.5,29.77,SW,233,4.0,5.0,58,0.00,,FEW045,0.00,VWS V14.00,2013-02-04 15:22:00,
2013-02-04 10:27:00,25.4,12.3,29.77,SW,228,3.0,12.0,57,0.00,,FEW045,0.00,VWS V14.00,2013-02-04 15:27:00,
2013-02-04 10:32:00,25.5,12.0,29.77,West,265,0.0,4.0,56,0.00,,FEW045,0.00,VWS V14.00,2013-02-04 15:32:00,
2013-02-04 10:37:00,25.7,11.8,29.77,WSW,249,6.0,11.0,55,0.00,,FEW045,0.00,VWS V14.00,2013-02-04 15:37:00,
2013-02-04 10:42:00,25.7,11.8,29.77,SSW,195,0.0,3.0,55,0.00,,FEW045,0.00,VWS V14.00,2013-02-04 15:42:00,
2013-02-04 10:47:00,25.4,10.7,29.77,SSW,208,3.0,14.0,53,0.00,,FEW045,0.00,VWS V14.00,2013-02-04 15:47:00,
2013-02-04 10:52:00,25.2,10.5,29.77,WSW,245,5.0,13.0,53,0.00,,FEW045,0.00,VWS V14.00,2013-02-04 15:52:00,
2013-02-04 10:57:00,25.1,10.4,29.77,WNW,292,6.0,13.0,53,0.00,,FEW045,0.00,VWS V14.00,2013-02-04 15:57:00,
2013-02-04 11:02:00,25.1,10.8,29.77,SW,235,6.0,9.0,54,0.00,,FEW049,0.00,VWS V14.00,2013-02-04 16:02:00,
2013-02-04 11:07:00,25.1,9.5,29.78,WSW,238,5.0,15.0,51,0.00,,FEW049,0.00,VWS V14.00,2013-02-04 16:07:00,
2013-02-04 11:12:00,25.2,9.2,29.77,WNW,289,5.0,10.0,50,0.00,,FEW049,0.00,VWS V14.00,2013-02-04 16:12:00,
2013-02-04 11:17:00,25.5,9.9,29.77,WNW,288,3.0,10.0,51,0.00,,FEW049,0.00,VWS V14.00,2013-02-04 16:17:00,
2013-02-04 11:23:00,25.7,9.6,29.77,West,259,6.0,10.0,50,0.00,,FEW049,0.00,VWS V14.00,2013-02-04 16:23:00,
2013-02-04 11:28:00,25.8,9.7,29.77,SW,230,5.0,14.0,50,0.00,,FEW049,0.00,VWS V14.00,2013-02-04 16:28:00,
2013-02-04 11:33:00,25.8,8.8,29.77,West,269,7.0,9.0,48,0.00,,FEW049,0.00,VWS V14.00,2013-02-04 16:33:00,
2013-02-04 11:38:00,26.0,9.5,29.77,West,269,3.0,12.0,49,0.00,,FEW049,0.00,VWS V14.00,2013-02-04 16:38:00,
2013-02-04 11:43:00,26.0,9.5,29.76,SSW,199,5.0,9.0,49,0.00,,FEW049,0.00,VWS V14.00,2013-02-04 16:43:00,
2013-02-04 11:48:00,26.6,10.0,29.77,WSW,252,1.0,15.0,49,0.00,,FEW049,0.00,VWS V14.00,2013-02-04 16:48:00,
2013-02-04 11:53:00,27.2,10.1,29.77,WNW,282,5.0,13.0,48,0.00,,FEW049,0.00,VWS V14.00,2013-02-04 16:53:00,
2013-02-04 11:58:00,26.9,8.4,29.76,SW,218,4.0,15.0,45,0.00,,FEW049,0.00,VWS V14.00,2013-02-04 16:58:00,
2013-02-04 12:03:00,26.1,8.2,29.76,West,259,9.0,14.0,46,0.00,,SCT060,0.00,VWS V14.00,2013-02-04 17:03:00,
2013-02-04 12:08:00,25.7,8.3,29.77,SW,234,6.0,14.0,47,0.00,,SCT060,0.00,VWS V14.00,2013-02-04 17:08:00,
2013-02-04 12:13:00,25.2,7.8,29.77,SW,217,6.0,13.0,47,0.00,,SCT060,0.00,VWS V14.00,2013-02-04 17:13:00,
2013-02-04 12:18:00,25.1,8.6,29.76,NNW,331,5.0,13.0,49,0.00,,SCT060,0.00,VWS V14.00,2013-02-04 17:18:00,
2013-02-04 12:23:00,24.9,8.5,29.76,WSW,246,3.0,12.0,49,0.00,,SCT060,0.00,VWS V14.00,2013-02-04 17:23:00,
2013-02-04 12:28:00,25.1,8.6,29.75,WNW,284,3.0,14.0,49,0.00,,SCT060,0.00,VWS V14.00,2013-02-04 17:28:00,
2013-02-04 12:34:00,25.8,8.8,29.75,WSW,242,4.0,11.0,48,0.00,,SCT060,0.00,VWS V14.00,2013-02-04 17:34:00,
2013-02-04 12:39:00,26.4,9.4,29.75,SW,221,5.0,12.0,48,0.00,,SCT060,0.00,VWS V14.00,2013-02-04 17:39:00,
2013-02-04 12:44:00,26.6,9.1,29.75,West,263,6.0,7.0,47,0.00,,SCT060,0.00,VWS V14.00,2013-02-04 17:44:00,
2013-02-04 12:49:00,26.4,8.9,29.75,WSW,253,2.0,10.0,47,0.00,,SCT060,0.00,VWS V14.00,2013-02-04 17:49:00,
2013-02-04 12:54:00,26.7,10.6,29.75,NW,306,1.0,5.0,50,0.00,,SCT060,0.00,VWS V14.00,2013-02-04 17:54:00,
2013-02-04 12:59:00,27.5,10.4,29.75,WNW,294,6.0,9.0,48,0.00,,SCT060,0.00,VWS V14.00,2013-02-04 17:59:00,
2013-02-04 13:04:00,27.3,10.2,29.75,NW,323,4.0,10.0,48,0.00,,SCT060,0.00,VWS V14.00,2013-02-04 18:04:00,
2013-02-04 13:09:00,27.3,10.7,29.75,WNW,288,7.0,12.0,49,0.00,,SCT060,0.00,VWS V14.00,2013-02-04 18:09:00,
2013-02-04 13:14:00,27.5,10.9,29.75,WSW,252,6.0,9.0,49,0.00,,SCT060,0.00,VWS V14.00,2013-02-04 18:14:00,
2013-02-04 13:19:00,27.0,10.4,29.75,SSW,193,3.0,11.0,49,0.00,,SCT060,0.00,VWS V14.00,2013-02-04 18:19:00,
2013-02-04 13:24:00,26.9,11.6,29.75,South,180,0.0,9.0,52,0.00,,SCT060,0.00,VWS V14.00,2013-02-04 18:24:00,
2013-02-04 13:29:00,26.3,11.1,29.75,WNW,283,4.0,11.0,52,0.00,,SCT060,0.00,VWS V14.00,2013-02-04 18:29:00,
2013-02-04 13:34:00,25.7,10.9,29.75,WNW,295,1.0,9.0,53,0.00,,SCT060,0.00,VWS V14.00,2013-02-04 18:34:00,
2013-02-04 13:39:00,25.7,11.4,29.75,WNW,296,0.0,9.0,54,0.00,,SCT060,0.00,VWS V14.00,2013-02-04 18:39:00,
2013-02-04 13:45:00,25.8,11.5,29.75,WSW,254,1.0,10.0,54,0.00,,SCT060,0.00,VWS V14.00,2013-02-04 18:45:00,
2013-02-04 13:50:00,26.1,11.7,29.75,SW,229,6.0,10.0,54,0.00,,SCT060,0.00,VWS V14.00,2013-02-04 18:50:00,
2013-02-04 13:55:00,26.6,11.8,29.75,NW,309,1.0,11.0,53,0.00,,SCT060,0.00,VWS V14.00,2013-02-04 18:55:00,
2013-02-04 14:00:00,26.4,11.6,29.75,West,271,6.0,13.0,53,0.00,,SCT060,0.00,VWS V14.00,2013-02-04 19:00:00,
2013-02-04 14:05:00,26.1,10.9,29.75,WSW,242,5.0,7.0,52,0.00,,SCT060,0.00,VWS V14.00,2013-02-04 19:05:00,
2013-02-04 14:10:00,26.0,11.2,29.76,WSW,252,4.0,14.0,53,0.00,,SCT060,0.00,VWS V14.00,2013-02-04 19:10:00,
2013-02-04 14:15:00,25.8,11.0,29.76,WSW,238,2.0,10.0,53,0.00,,SCT060,0.00,VWS V14.00,2013-02-04 19:15:00,
2013-02-04 14:20:00,26.0,11.2,29.76,NW,318,0.0,12.0,53,0.00,,SCT060,0.00,VWS V14.00,2013-02-04 19:20:00,
2013-02-04 14:25:00,26.3,11.1,29.76,WNW,290,3.0,8.0,52,0.00,,SCT060,0.00,VWS V14.00,2013-02-04 19:25:00,
2013-02-04 14:30:00,26.4,12.0,29.77,WSW,244,6.0,10.0,54,0.00,,SCT060,0.00,VWS V14.00,2013-02-04 19:30:00,
2013-02-04 14:35:00,26.3,10.2,29.76,SSW,212,4.0,12.0,50,0.00,,SCT060,0.00,VWS V14.00,2013-02-04 19:35:00,
2013-02-04 14:40:00,26.7,10.1,29.77,SSW,205,4.0,12.0,49,0.00,,SCT060,0.00,VWS V14.00,2013-02-04 19:40:00,
2013-02-04 14:45:00,27.2,9.6,29.77,WSW,246,2.0,9.0,47,0.00,,SCT060,0.00,VWS V14.00,2013-02-04 19:45:00,
2013-02-04 14:50:00,27.0,8.5,29.77,West,276,6.0,11.0,45,0.00,,SCT060,0.00,VWS V14.00,2013-02-04 19:50:00,
2013-02-04 14:55:00,26.6,8.6,29.78,WSW,257,4.0,12.0,46,0.00,,SCT060,0.00,VWS V14.00,2013-02-04 19:55:00,
2013-02-04 15:01:00,26.4,7.9,29.78,West,269,3.0,12.0,45,0.00,,BKN060,0.00,VWS V14.00,2013-02-04 20:01:00,
2013-02-04 15:06:00,26.4,8.9,29.77,West,259,7.0,7.0,47,0.00,,BKN060,0.00,VWS V14.00,2013-02-04 20:06:00,
2013-02-04 15:11:00,26.7,8.2,29.78,WSW,255,6.0,11.0,45,0.00,,BKN060,0.00,VWS V14.00,2013-02-04 20:11:00,
2013-02-04 15:16:00,26.6,7.6,29.78,WSW,249,4.0,12.0,44,0.00,,BKN060,0.00,VWS V14.00,2013-02-04 20:16:00,
2013-02-04 15:21:00,26.6,7.6,29.78,South,172,3.0,12.0,44,0.00,,BKN060,0.00,VWS V14.00,2013-02-04 20:21:00,
2013-02-04 15:26:00,26.6,7.1,29.78,WSW,245,3.0,12.0,43,0.00,,BKN060,0.00,VWS V14.00,2013-02-04 20:26:00,
2013-02-04 15:31:00,26.6,7.1,29.77,WSW,243,0.0,15.0,43,0.00,,BKN060,0.00,VWS V14.00,2013-02-04 20:31:00,
2013-02-04 15:36:00,26.6,7.6,29.77,West,262,3.0,9.0,44,0.00,,BKN060,0.00,VWS V14.00,2013-02-04 20:36:00,
2013-02-04 15:41:00,26.3,8.4,29.77,WSW,254,0.0,0.0,46,0.00,,BKN060,0.00,VWS V14.00,2013-02-04 20:41:00,
2013-02-04 15:46:00,26.0,8.6,29.77,West,269,4.0,9.0,47,0.00,,BKN060,0.00,VWS V14.00,2013-02-04 20:46:00,
2013-02-04 15:51:00,26.0,7.6,29.77,West,268,3.0,10.0,45,0.00,,BKN060,0.00,VWS V14.00,2013-02-04 20:51:00,
2013-02-04 15:56:00,25.8,7.9,29.77,WNW,292,1.0,10.0,46,0.00,,BKN060,0.00,VWS V14.00,2013-02-04 20:56:00,
2013-02-04 16:01:00,25.8,7.9,29.77,WSW,242,5.0,5.0,46,0.00,,SCT055,0.00,VWS V14.00,2013-02-04 21:01:00,
2013-02-04 16:07:00,25.8,7.4,29.78,WNW,298,4.0,11.0,45,0.00,,SCT055,0.00,VWS V14.00,2013-02-04 21:07:00,
2013-02-04 16:12:00,25.8,7.9,29.78,WSW,246,4.0,6.0,46,0.00,,SCT055,0.00,VWS V14.00,2013-02-04 21:12:00,
2013-02-04 16:17:00,25.7,7.3,29.78,West,265,5.0,11.0,45,0.00,,SCT055,0.00,VWS V14.00,2013-02-04 21:17:00,
2013-02-04 16:22:00,25.5,7.1,29.78,WNW,283,4.0,9.0,45,0.00,,SCT055,0.00,VWS V14.00,2013-02-04 21:22:00,
2013-02-04 16:27:00,25.4,7.5,29.78,West,261,1.0,9.0,46,0.00,,SCT055,0.00,VWS V14.00,2013-02-04 21:27:00,
2013-02-04 16:32:00,25.4,8.0,29.78,SSW,208,0.0,2.0,47,0.00,,SCT055,0.00,VWS V14.00,2013-02-04 21:32:00,
2013-02-04 16:37:00,25.4,8.0,29.78,West,266,0.0,7.0,47,0.00,,SCT055,0.00,VWS V14.00,2013-02-04 21:37:00,
2013-02-04 16:42:00,25.2,8.3,29.78,WNW,284,6.0,10.0,48,0.00,,SCT055,0.00,VWS V14.00,2013-02-04 21:42:00,
2013-02-04 16:47:00,25.1,8.6,29.79,West,260,2.0,14.0,49,0.00,,SCT055,0.00,VWS V14.00,2013-02-04 21:47:00,
2013-02-04 16:52:00,24.9,8.9,29.79,SW,233,2.0,5.0,50,0.00,,SCT055,0.00,VWS V14.00,2013-02-04 21:52:00,
2013-02-04 16:57:00,24.9,8.9,29.79,SSW,199,1.0,6.0,50,0.00,,SCT055,0.00,VWS V14.00,2013-02-04 21:57:00,
2013-02-04 17:02:00,24.8,9.7,29.80,NW,323,3.0,5.0,52,0.00,,SCT180,0.00,VWS V14.00,2013-02-04 22:02:00,
2013-02-04 17:07:00,24.6,9.9,29.80,West,271,7.0,9.0,53,0.00,,SCT180,0.00,VWS V14.00,2013-02-04 22:07:00,
2013-02-04 17:12:00,24.5,10.2,29.80,WNW,294,0.0,3.0,54,0.00,,SCT180,0.00,VWS V14.00,2013-02-04 22:12:00,
2013-02-04 17:17:00,24.3,9.6,29.80,WNW,295,3.0,11.0,53,0.00,,SCT180,0.00,VWS V14.00,2013-02-04 22:17:00,
2013-02-04 17:22:00,24.3,10.1,29.80,West,273,1.0,2.0,54,0.00,,SCT180,0.00,VWS V14.00,2013-02-04 22:22:00,
2013-02-04 17:28:00,24.3,10.1,29.81,West,259,3.0,6.0,54,0.00,,SCT180,0.00,VWS V14.00,2013-02-04 22:28:00,
2013-02-04 17:33:00,24.2,9.6,29.81,West,271,2.0,3.0,53,0.00,,SCT180,0.00,VWS V14.00,2013-02-04 22:33:00,
2013-02-04 17:38:00,24.1,9.0,29.81,SW,231,0.0,10.0,52,0.00,,SCT180,0.00,VWS V14.00,2013-02-04 22:38:00,
2013-02-04 17:43:00,24.1,9.0,29.82,WSW,246,3.0,11.0,52,0.00,,SCT180,0.00,VWS V14.00,2013-02-04 22:43:00,
2013-02-04 17:48:00,23.9,8.4,29.82,SW,229,1.0,13.0,51,0.00,,SCT180,0.00,VWS V14.00,2013-02-04 22:48:00,
2013-02-04 17:53:00,23.9,8.4,29.82,WSW,237,5.0,10.0,51,0.00,,SCT180,0.00,VWS V14.00,2013-02-04 22:53:00,
2013-02-04 17:58:00,23.9,8.9,29.82,SW,233,4.0,11.0,52,0.00,,SCT180,0.00,VWS V14.00,2013-02-04 22:58:00,
2013-02-04 18:03:00,23.8,9.2,29.83,West,277,1.0,9.0,53,0.00,,SCT180,0.00,VWS V14.00,2013-02-04 23:03:00,
2013-02-04 18:08:00,23.8,9.2,29.83,West,273,3.0,9.0,53,0.00,,SCT180,0.00,VWS V14.00,2013-02-04 23:08:00,
2013-02-04 18:13:00,23.6,9.0,29.83,WSW,246,2.0,6.0,53,0.00,,SCT180,0.00,VWS V14.00,2013-02-04 23:13:00,
2013-02-04 18:18:00,23.6,9.4,29.83,SW,231,3.0,6.0,54,0.00,,SCT180,0.00,VWS V14.00,2013-02-04 23:18:00,
2013-02-04 18:23:00,23.6,9.4,29.83,WNW,282,2.0,5.0,54,0.00,,SCT180,0.00,VWS V14.00,2013-02-04 23:23:00,
2013-02-04 18:28:00,23.5,9.3,29.83,West,279,3.0,5.0,54,0.00,,SCT180,0.00,VWS V14.00,2013-02-04 23:28:00,
2013-02-04 18:33:00,23.5,9.7,29.84,WSW,253,0.0,4.0,55,0.00,,SCT180,0.00,VWS V14.00,2013-02-04 23:33:00,
2013-02-04 18:39:00,23.3,9.1,29.84,WSW,257,2.0,5.0,54,0.00,,SCT180,0.00,VWS V14.00,2013-02-04 23:39:00,
2013-02-04 18:44:00,23.3,9.1,29.84,West,259,1.0,2.0,54,0.00,,SCT180,0.00,VWS V14.00,2013-02-04 23:44:00,
2013-02-04 18:49:00,23.2,9.4,29.85,SW,217,4.0,4.0,55,0.00,,SCT180,0.00,VWS V14.00,2013-02-04 23:49:00,
2013-02-04 18:54:00,23.2,9.4,29.85,WNW,282,0.0,6.0,55,0.00,,SCT180,0.00,VWS V14.00,2013-02-04 23:54:00,
2013-02-04 18:59:00,23.0,9.2,29.85,WSW,251,3.0,6.0,55,0.00,,SCT180,0.00,VWS V14.00,2013-02-04 23:59:00,
2013-02-04 19:04:00,23.0,9.2,29.85,WSW,242,0.0,4.0,55,0.00,,FEW180,0.00,VWS V14.00,2013-02-05 00:04:00,
2013-02-04 19:09:00,23.0,9.7,29.85,WSW,255,1.0,4.0,56,0.00,,FEW180,0.00,VWS V14.00,2013-02-05 00:09:00,
2013-02-04 19:14:00,22.9,9.6,29.86,WSW,238,0.0,2.0,56,0.00,,FEW180,0.00,VWS V14.00,2013-02-05 00:14:00,
2013-02-04 19:19:00,22.9,9.6,29.86,WSW,248,2.0,4.0,56,0.00,,FEW180,0.00,VWS V14.00,2013-02-05 00:19:00,
2013-02-04 19:24:00,22.7,9.4,29.86,West,269,0.0,4.0,56,0.00,,FEW180,0.00,VWS V14.00,2013-02-05 00:24:00,
2013-02-04 19:29:00,22.7,9.4,29.86,WNW,292,2.0,7.0,56,0.00,,FEW180,0.00,VWS V14.00,2013-02-05 00:29:00,
2013-02-04 19:34:00,22.6,9.3,29.86,South,170,1.0,2.0,56,0.00,,FEW180,0.00,VWS V14.00,2013-02-05 00:34:00,
2013-02-04 19:39:00,22.6,9.3,29.86,WSW,238,0.0,6.0,56,0.00,,FEW180,0.00,VWS V14.00,2013-02-05 00:39:00,
2013-02-04 19:45:00,22.6,9.3,29.86,WSW,242,3.0,4.0,56,0.00,,FEW180,0.00,VWS V14.00,2013-02-05 00:45:00,
2013-02-04 19:50:00,22.4,9.1,29.86,SW,231,1.0,6.0,56,0.00,,FEW180,0.00,VWS V14.00,2013-02-05 00:50:00,
2013-02-04 19:55:00,22.4,9.1,29.86,West,261,2.0,5.0,56,0.00,,FEW180,0.00,VWS V14.00,2013-02-05 00:55:00,
2013-02-04 20:00:00,22.4,9.1,29.86,WSW,254,0.0,5.0,56,0.00,,CLR,0.00,VWS V14.00,2013-02-05 01:00:00,
2013-02-04 20:05:00,22.3,9.0,29.86,WSW,248,4.0,6.0,56,0.00,,CLR,0.00,VWS V14.00,2013-02-05 01:05:00,
2013-02-04 20:10:00,22.3,9.0,29.87,SW,235,3.0,10.0,56,0.00,,CLR,0.00,VWS V14.00,2013-02-05 01:10:00,
2013-02-04 20:15:00,22.1,8.8,29.87,WSW,250,2.0,4.0,56,0.00,,CLR,0.00,VWS V14.00,2013-02-05 01:15:00,
2013-02-04 20:20:00,22.1,8.8,29.87,WNW,286,1.0,5.0,56,0.00,,CLR,0.00,VWS V14.00,2013-02-05 01:20:00,
2013-02-04 20:25:00,22.1,8.8,29.87,WSW,252,1.0,4.0,56,0.00,,CLR,0.00,VWS V14.00,2013-02-05 01:25:00,
2013-02-04 20:30:00,22.0,9.1,29.87,WNW,282,1.0,4.0,57,0.00,,CLR,0.00,VWS V14.00,2013-02-05 01:30:00,
2013-02-04 20:35:00,22.0,9.1,29.88,SW,216,2.0,4.0,57,0.00,,CLR,0.00,VWS V14.00,2013-02-05 01:35:00,
2013-02-04 20:41:00,22.0,8.7,29.88,West,262,1.0,5.0,56,0.00,,CLR,0.00,VWS V14.00,2013-02-05 01:41:00,
2013-02-04 20:46:00,21.8,8.9,29.88,WSW,251,2.0,4.0,57,0.00,,CLR,0.00,VWS V14.00,2013-02-05 01:46:00,
2013-02-04 20:51:00,21.8,8.9,29.88,SW,226,2.0,4.0,57,0.00,,CLR,0.00,VWS V14.00,2013-02-05 01:51:00,
2013-02-04 20:56:00,21.7,8.8,29.88,SW,226,0.0,3.0,57,0.00,,CLR,0.00,VWS V14.00,2013-02-05 01:56:00,
2013-02-04 21:01:00,21.7,8.8,29.89,WSW,257,1.0,4.0,57,0.00,,CLR,0.00,VWS V14.00,2013-02-05 02:01:00,
2013-02-04 21:06:00,21.5,8.6,29.89,WSW,242,1.0,3.0,57,0.00,,CLR,0.00,VWS V14.00,2013-02-05 02:06:00,
2013-02-04 21:11:00,21.5,8.6,29.89,SW,222,0.0,3.0,57,0.00,,CLR,0.00,VWS V14.00,2013-02-05 02:11:00,
2013-02-04 21:16:00,21.5,8.6,29.89,SW,222,0.0,2.0,57,0.00,,CLR,0.00,VWS V14.00,2013-02-05 02:16:00,
2013-02-04 21:21:00,21.4,8.6,29.89,WSW,239,0.0,1.0,57,0.00,,CLR,0.00,VWS V14.00,2013-02-05 02:21:00,
2013-02-04 21:26:00,21.4,8.6,29.90,SW,227,0.0,3.0,57,0.00,,CLR,0.00,VWS V14.00,2013-02-05 02:26:00,
2013-02-04 21:31:00,21.2,8.4,29.90,SW,227,2.0,3.0,57,0.00,,CLR,0.00,VWS V14.00,2013-02-05 02:31:00,
2013-02-04 21:36:00,21.2,8.7,29.90,West,264,0.0,4.0,58,0.00,,CLR,0.00,VWS V14.00,2013-02-05 02:36:00,
2013-02-04 21:41:00,21.0,8.2,29.90,SW,235,1.0,2.0,57,0.00,,CLR,0.00,VWS V14.00,2013-02-05 02:41:00,
2013-02-04 21:47:00,21.0,8.6,29.90,SW,235,0.0,2.0,58,0.00,,CLR,0.00,VWS V14.00,2013-02-05 02:47:00,
2013-02-04 21:52:00,21.0,8.6,29.91,SW,235,0.0,0.0,58,0.00,,CLR,0.00,VWS V14.00,2013-02-05 02:52:00,
2013-02-04 21:57:00,20.9,8.8,29.91,WSW,240,0.0,3.0,59,0.00,,CLR,0.00,VWS V14.00,2013-02-05 02:57:00,
2013-02-04 22:02:00,20.9,8.8,29.91,WSW,247,0.0,1.0,59,0.00,,CLR,0.00,VWS V14.00,2013-02-05 03:02:00,
2013-02-04 22:07:00,20.7,8.6,29.91,WSW,247,0.0,1.0,59,0.00,,CLR,0.00,VWS V14.00,2013-02-05 03:07:00,
2013-02-04 22:12:00,20.7,8.6,29.91,WSW,247,0.0,0.0,59,0.00,,CLR,0.00,VWS V14.00,2013-02-05 03:12:00,
2013-02-04 22:17:00,20.6,8.9,29.91,WSW,247,0.0,0.0,60,0.00,,CLR,0.00,VWS V14.00,2013-02-05 03:17:00,
2013-02-04 22:22:00,20.4,8.7,29.90,WSW,247,0.0,0.0,60,0.00,,CLR,0.00,VWS V14.00,2013-02-05 03:22:00,
2013-02-04 22:27:00,20.3,9.0,29.90,WSW,247,0.0,0.0,61,0.00,,CLR,0.00,VWS V14.00,2013-02-05 03:27:00,
2013-02-04 22:32:00,20.1,9.2,29.90,WSW,247,0.0,0.0,62,0.00,,CLR,0.00,VWS V14.00,2013-02-05 03:32:00,
2013-02-04 22:37:00,19.9,9.4,29.90,WSW,247,0.0,0.0,63,0.00,,CLR,0.00,VWS V14.00,2013-02-05 03:37:00,
2013-02-04 22:43:00,19.8,9.3,29.91,WSW,247,0.0,0.0,63,0.00,,CLR,0.00,VWS V14.00,2013-02-05 03:43:00,
2013-02-04 22:48:00,19.6,9.1,29.91,WSW,247,0.0,0.0,63,0.00,,CLR,0.00,VWS V14.00,2013-02-05 03:48:00,
2013-02-04 22:53:00,19.5,9.0,29.91,WSW,247,0.0,0.0,63,0.00,,CLR,0.00,VWS V14.00,2013-02-05 03:53:00,
2013-02-04 22:58:00,19.3,9.1,29.91,WSW,247,0.0,0.0,64,0.00,,CLR,0.00,VWS V14.00,2013-02-05 03:58:00,
2013-02-04 23:03:00,19.1,8.9,29.91,WSW,247,0.0,0.0,64,0.00,,CLR,0.00,VWS V14.00,2013-02-05 04:03:00,
2013-02-04 23:08:00,19.1,8.9,29.91,WSW,247,0.0,1.0,64,0.00,,CLR,0.00,VWS V14.00,2013-02-05 04:08:00,
2013-02-04 23:13:00,19.0,9.2,29.91,WSW,250,1.0,2.0,65,0.00,,CLR,0.00,VWS V14.00,2013-02-05 04:13:00,
2013-02-04 23:18:00,18.8,9.0,29.91,SW,217,0.0,3.0,65,0.00,,CLR,0.00,VWS V14.00,2013-02-05 04:18:00,
2013-02-04 23:23:00,18.8,9.0,29.91,SW,217,0.0,0.0,65,0.00,,CLR,0.00,VWS V14.00,2013-02-05 04:23:00,
2013-02-04 23:28:00,18.8,9.0,29.92,SW,217,0.0,1.0,65,0.00,,CLR,0.00,VWS V14.00,2013-02-05 04:28:00,
2013-02-04 23:33:00,18.8,9.3,29.92,SW,217,0.0,0.0,66,0.00,,CLR,0.00,VWS V14.00,2013-02-05 04:33:00,
2013-02-04 23:38:00,18.8,9.3,29.92,SW,217,0.0,0.0,66,0.00,,CLR,0.00,VWS V14.00,2013-02-05 04:38:00,
2013-02-04 23:43:00,18.8,9.3,29.92,SW,217,0.0,1.0,66,0.00,,CLR,0.00,VWS V14.00,2013-02-05 04:43:00,
2013-02-04 23:49:00,18.8,9.3,29.92,SW,217,0.0,2.0,66,0.00,,CLR,0.00,VWS V14.00,2013-02-05 04:49:00,
2013-02-04 23:54:00,18.8,9.3,29.92,SW,217,0.0,2.0,66,0.00,,CLR,0.00,VWS V14.00,2013-02-05 04:54:00,
2013-02-04 23:59:00,19.0,9.9,29.93,SW,217,0.0,3.0,67,0.00,,CLR,0.00,VWS V14.00,2013-02-05 04:59:00,